sensor_id;sensor_type;location;lat;lon;timestamp;P1;durP1;ratioP1;P2;durP2;ratioP2
10092;SDS011;5085;48.092;11.484;2022-10-16T00:01:23;1.05;;;0.50;;
10092;SDS011;5085;48.092;11.484;2022-10-16T00:03:51;1.33;;;0.63;;
10092;SDS011;5085;48.092;11.484;2022-10-16T00:06:18;2.53;;;0.70;;
10092;SDS011;5085;48.092;11.484;2022-10-16T00:08:46;1.00;;;0.50;;
10092;SDS011;5085;48.092;11.484;2022-10-16T00:11:17;1.45;;;0.63;;
10092;SDS011;5085;48.092;11.484;2022-10-16T00:13:45;1.55;;;0.70;;
10092;SDS011;5085;48.092;11.484;2022-10-16T00:16:12;1.70;;;0.73;;
10092;SDS011;5085;48.092;11.484;2022-10-16T00:18:39;2.92;;;0.70;;
10092;SDS011;5085;48.092;11.484;2022-10-16T00:21:10;2.80;;;0.85;;
10092;SDS011;5085;48.092;11.484;2022-10-16T00:23:38;1.27;;;0.57;;
10092;SDS011;5085;48.092;11.484;2022-10-16T00:26:06;2.42;;;0.65;;
10092;SDS011;5085;48.092;11.484;2022-10-16T00:28:34;1.60;;;0.70;;
10092;SDS011;5085;48.092;11.484;2022-10-16T00:31:04;1.30;;;0.55;;
10092;SDS011;5085;48.092;11.484;2022-10-16T00:33:33;1.33;;;0.65;;
10092;SDS011;5085;48.092;11.484;2022-10-16T00:36:00;2.63;;;0.70;;
10092;SDS011;5085;48.092;11.484;2022-10-16T00:38:27;1.67;;;0.70;;
10092;SDS011;5085;48.092;11.484;2022-10-16T00:40:53;1.58;;;0.68;;
10092;SDS011;5085;48.092;11.484;2022-10-16T00:46:02;2.03;;;0.90;;
10092;SDS011;5085;48.092;11.484;2022-10-16T00:48:33;1.33;;;0.70;;
10092;SDS011;5085;48.092;11.484;2022-10-16T00:50:59;1.30;;;0.60;;
10092;SDS011;5085;48.092;11.484;2022-10-16T00:53:25;1.27;;;0.68;;
10092;SDS011;5085;48.092;11.484;2022-10-16T00:55:53;7.70;;;0.75;;
10092;SDS011;5085;48.092;11.484;2022-10-16T00:58:20;1.27;;;0.65;;
10092;SDS011;5085;48.092;11.484;2022-10-16T01:00:46;1.02;;;0.70;;
10092;SDS011;5085;48.092;11.484;2022-10-16T01:03:29;0.98;;;0.52;;
10092;SDS011;5085;48.092;11.484;2022-10-16T01:11:25;1.02;;;0.55;;
10092;SDS011;5085;48.092;11.484;2022-10-16T01:13:59;1.05;;;0.40;;
10092;SDS011;5085;48.092;11.484;2022-10-16T01:16:34;1.45;;;0.52;;
10092;SDS011;5085;48.092;11.484;2022-10-16T01:19:14;4.82;;;0.60;;
10092;SDS011;5085;48.092;11.484;2022-10-16T01:21:46;0.80;;;0.50;;
10092;SDS011;5085;48.092;11.484;2022-10-16T01:27:05;2.80;;;0.52;;
10092;SDS011;5085;48.092;11.484;2022-10-16T01:29:37;0.98;;;0.40;;
10092;SDS011;5085;48.092;11.484;2022-10-16T01:32:20;0.80;;;0.40;;
10092;SDS011;5085;48.092;11.484;2022-10-16T01:34:58;3.38;;;0.57;;
10092;SDS011;5085;48.092;11.484;2022-10-16T01:37:38;4.30;;;0.50;;
10092;SDS011;5085;48.092;11.484;2022-10-16T01:40:11;1.08;;;0.52;;
10092;SDS011;5085;48.092;11.484;2022-10-16T01:42:45;0.90;;;0.50;;
10092;SDS011;5085;48.092;11.484;2022-10-16T01:45:16;2.78;;;1.10;;
10092;SDS011;5085;48.092;11.484;2022-10-16T01:47:45;1.00;;;0.40;;
10092;SDS011;5085;48.092;11.484;2022-10-16T01:50:13;1.10;;;0.63;;
10092;SDS011;5085;48.092;11.484;2022-10-16T01:52:42;1.67;;;0.50;;
10092;SDS011;5085;48.092;11.484;2022-10-16T01:55:12;1.05;;;0.57;;
10092;SDS011;5085;48.092;11.484;2022-10-16T01:57:44;1.95;;;0.55;;
10092;SDS011;5085;48.092;11.484;2022-10-16T02:00:15;1.00;;;0.47;;
10092;SDS011;5085;48.092;11.484;2022-10-16T02:02:44;2.40;;;0.65;;
10092;SDS011;5085;48.092;11.484;2022-10-16T02:05:17;1.80;;;0.47;;
10092;SDS011;5085;48.092;11.484;2022-10-16T02:07:48;1.15;;;0.50;;
10092;SDS011;5085;48.092;11.484;2022-10-16T02:10:14;0.80;;;0.55;;
10092;SDS011;5085;48.092;11.484;2022-10-16T02:12:43;1.77;;;0.50;;
10092;SDS011;5085;48.092;11.484;2022-10-16T02:15:13;4.45;;;0.60;;
10092;SDS011;5085;48.092;11.484;2022-10-16T02:17:39;1.50;;;0.50;;
10092;SDS011;5085;48.092;11.484;2022-10-16T02:20:05;1.38;;;0.68;;
10092;SDS011;5085;48.092;11.484;2022-10-16T02:22:32;1.00;;;0.50;;
10092;SDS011;5085;48.092;11.484;2022-10-16T02:25:04;0.85;;;0.40;;
10092;SDS011;5085;48.092;11.484;2022-10-16T02:30:25;1.15;;;0.70;;
10092;SDS011;5085;48.092;11.484;2022-10-16T02:32:55;1.13;;;0.68;;
10092;SDS011;5085;48.092;11.484;2022-10-16T02:35:24;5.38;;;0.70;;
10092;SDS011;5085;48.092;11.484;2022-10-16T02:37:51;0.82;;;0.60;;
10092;SDS011;5085;48.092;11.484;2022-10-16T02:40:18;1.40;;;0.57;;
10092;SDS011;5085;48.092;11.484;2022-10-16T02:42:49;1.67;;;0.70;;
10092;SDS011;5085;48.092;11.484;2022-10-16T02:45:16;8.10;;;0.90;;
10092;SDS011;5085;48.092;11.484;2022-10-16T02:47:42;1.52;;;0.68;;
10092;SDS011;5085;48.092;11.484;2022-10-16T02:50:08;0.98;;;0.60;;
10092;SDS011;5085;48.092;11.484;2022-10-16T02:52:34;0.85;;;0.40;;
10092;SDS011;5085;48.092;11.484;2022-10-16T02:55:00;1.10;;;0.50;;
10092;SDS011;5085;48.092;11.484;2022-10-16T02:57:26;1.70;;;0.70;;
10092;SDS011;5085;48.092;11.484;2022-10-16T02:59:52;1.05;;;0.70;;
10092;SDS011;5085;48.092;11.484;2022-10-16T03:02:19;2.63;;;0.63;;
10092;SDS011;5085;48.092;11.484;2022-10-16T03:04:45;0.95;;;0.40;;
10092;SDS011;5085;48.092;11.484;2022-10-16T03:07:11;1.00;;;0.52;;
10092;SDS011;5085;48.092;11.484;2022-10-16T03:09:37;1.05;;;0.52;;
10092;SDS011;5085;48.092;11.484;2022-10-16T03:12:03;2.03;;;0.80;;
10092;SDS011;5085;48.092;11.484;2022-10-16T03:14:29;1.10;;;0.40;;
10092;SDS011;5085;48.092;11.484;2022-10-16T03:16:55;1.27;;;0.60;;
10092;SDS011;5085;48.092;11.484;2022-10-16T03:19:21;1.02;;;0.50;;
10092;SDS011;5085;48.092;11.484;2022-10-16T03:21:47;2.17;;;0.57;;
10092;SDS011;5085;48.092;11.484;2022-10-16T03:24:13;2.25;;;0.40;;
10092;SDS011;5085;48.092;11.484;2022-10-16T03:26:39;1.08;;;0.60;;
10092;SDS011;5085;48.092;11.484;2022-10-16T03:29:05;1.98;;;0.80;;
10092;SDS011;5085;48.092;11.484;2022-10-16T03:31:31;1.65;;;0.77;;
10092;SDS011;5085;48.092;11.484;2022-10-16T03:33:58;1.25;;;0.70;;
10092;SDS011;5085;48.092;11.484;2022-10-16T03:36:24;2.35;;;0.50;;
10092;SDS011;5085;48.092;11.484;2022-10-16T03:38:50;1.50;;;0.63;;
10092;SDS011;5085;48.092;11.484;2022-10-16T03:41:16;2.72;;;0.80;;
10092;SDS011;5085;48.092;11.484;2022-10-16T03:43:42;1.02;;;0.52;;
10092;SDS011;5085;48.092;11.484;2022-10-16T03:46:08;1.33;;;0.60;;
10092;SDS011;5085;48.092;11.484;2022-10-16T03:48:34;1.17;;;0.65;;
10092;SDS011;5085;48.092;11.484;2022-10-16T03:51:00;0.85;;;0.50;;
10092;SDS011;5085;48.092;11.484;2022-10-16T03:53:26;1.13;;;0.60;;
10092;SDS011;5085;48.092;11.484;2022-10-16T03:55:52;1.10;;;0.60;;
10092;SDS011;5085;48.092;11.484;2022-10-16T03:58:18;1.15;;;0.50;;
10092;SDS011;5085;48.092;11.484;2022-10-16T04:00:45;2.00;;;1.08;;
10092;SDS011;5085;48.092;11.484;2022-10-16T04:03:13;1.50;;;0.70;;
10092;SDS011;5085;48.092;11.484;2022-10-16T04:05:39;1.27;;;0.68;;
10092;SDS011;5085;48.092;11.484;2022-10-16T04:08:05;1.15;;;0.50;;
10092;SDS011;5085;48.092;11.484;2022-10-16T04:10:31;1.45;;;0.70;;
10092;SDS011;5085;48.092;11.484;2022-10-16T04:12:58;1.33;;;0.50;;
10092;SDS011;5085;48.092;11.484;2022-10-16T04:15:24;2.63;;;0.82;;
10092;SDS011;5085;48.092;11.484;2022-10-16T04:17:51;1.73;;;0.95;;
10092;SDS011;5085;48.092;11.484;2022-10-16T04:20:17;3.92;;;0.80;;
10092;SDS011;5085;48.092;11.484;2022-10-16T04:22:44;1.58;;;0.73;;
10092;SDS011;5085;48.092;11.484;2022-10-16T04:25:10;4.00;;;0.85;;
10092;SDS011;5085;48.092;11.484;2022-10-16T04:27:37;3.53;;;0.60;;
10092;SDS011;5085;48.092;11.484;2022-10-16T04:30:03;3.53;;;0.85;;
10092;SDS011;5085;48.092;11.484;2022-10-16T04:32:30;1.10;;;0.52;;
10092;SDS011;5085;48.092;11.484;2022-10-16T04:34:56;1.52;;;0.65;;
10092;SDS011;5085;48.092;11.484;2022-10-16T04:37:26;2.45;;;0.75;;
10092;SDS011;5085;48.092;11.484;2022-10-16T04:39:52;1.33;;;0.65;;
10092;SDS011;5085;48.092;11.484;2022-10-16T04:42:19;1.70;;;0.80;;
10092;SDS011;5085;48.092;11.484;2022-10-16T04:44:46;0.90;;;0.50;;
10092;SDS011;5085;48.092;11.484;2022-10-16T04:47:12;2.45;;;0.80;;
10092;SDS011;5085;48.092;11.484;2022-10-16T04:49:39;3.70;;;0.70;;
10092;SDS011;5085;48.092;11.484;2022-10-16T04:52:05;4.45;;;0.75;;
10092;SDS011;5085;48.092;11.484;2022-10-16T04:54:31;1.30;;;0.60;;
10092;SDS011;5085;48.092;11.484;2022-10-16T04:56:57;4.20;;;1.15;;
10092;SDS011;5085;48.092;11.484;2022-10-16T04:59:23;1.60;;;0.85;;
10092;SDS011;5085;48.092;11.484;2022-10-16T05:01:50;1.52;;;0.80;;
10092;SDS011;5085;48.092;11.484;2022-10-16T05:04:16;1.38;;;0.73;;
10092;SDS011;5085;48.092;11.484;2022-10-16T05:06:42;2.22;;;0.80;;
10092;SDS011;5085;48.092;11.484;2022-10-16T05:09:08;1.30;;;0.75;;
10092;SDS011;5085;48.092;11.484;2022-10-16T05:11:34;2.28;;;0.80;;
10092;SDS011;5085;48.092;11.484;2022-10-16T05:14:01;1.88;;;0.93;;
10092;SDS011;5085;48.092;11.484;2022-10-16T05:16:27;1.40;;;0.60;;
10092;SDS011;5085;48.092;11.484;2022-10-16T05:18:53;1.80;;;0.88;;
10092;SDS011;5085;48.092;11.484;2022-10-16T05:21:19;1.73;;;0.88;;
10092;SDS011;5085;48.092;11.484;2022-10-16T05:23:46;1.33;;;0.73;;
10092;SDS011;5085;48.092;11.484;2022-10-16T05:26:12;1.33;;;0.63;;
10092;SDS011;5085;48.092;11.484;2022-10-16T05:28:38;1.50;;;0.70;;
10092;SDS011;5085;48.092;11.484;2022-10-16T05:31:07;1.83;;;0.80;;
10092;SDS011;5085;48.092;11.484;2022-10-16T05:33:34;1.50;;;0.80;;
10092;SDS011;5085;48.092;11.484;2022-10-16T05:36:01;4.70;;;1.15;;
10092;SDS011;5085;48.092;11.484;2022-10-16T05:38:33;1.88;;;0.80;;
10092;SDS011;5085;48.092;11.484;2022-10-16T05:41:00;2.58;;;0.60;;
10092;SDS011;5085;48.092;11.484;2022-10-16T05:43:27;2.08;;;0.93;;
10092;SDS011;5085;48.092;11.484;2022-10-16T05:45:54;4.70;;;0.70;;
10092;SDS011;5085;48.092;11.484;2022-10-16T05:48:24;2.13;;;0.85;;
10092;SDS011;5085;48.092;11.484;2022-10-16T05:50:57;1.58;;;0.73;;
10092;SDS011;5085;48.092;11.484;2022-10-16T05:53:28;1.65;;;0.60;;
10092;SDS011;5085;48.092;11.484;2022-10-16T05:55:55;1.35;;;0.75;;
10092;SDS011;5085;48.092;11.484;2022-10-16T05:58:22;1.40;;;0.93;;
10092;SDS011;5085;48.092;11.484;2022-10-16T06:03:22;1.45;;;0.60;;
10092;SDS011;5085;48.092;11.484;2022-10-16T06:05:48;1.13;;;0.63;;
10092;SDS011;5085;48.092;11.484;2022-10-16T06:08:14;2.92;;;0.90;;
10092;SDS011;5085;48.092;11.484;2022-10-16T06:10:40;3.80;;;0.80;;
10092;SDS011;5085;48.092;11.484;2022-10-16T06:13:07;2.45;;;0.88;;
10092;SDS011;5085;48.092;11.484;2022-10-16T06:15:33;2.85;;;1.13;;
10092;SDS011;5085;48.092;11.484;2022-10-16T06:17:59;4.25;;;1.00;;
10092;SDS011;5085;48.092;11.484;2022-10-16T06:20:25;1.63;;;0.70;;
10092;SDS011;5085;48.092;11.484;2022-10-16T06:22:51;8.80;;;0.90;;
10092;SDS011;5085;48.092;11.484;2022-10-16T06:25:17;3.08;;;0.70;;
10092;SDS011;5085;48.092;11.484;2022-10-16T06:27:43;2.50;;;1.00;;
10092;SDS011;5085;48.092;11.484;2022-10-16T06:30:09;1.83;;;0.93;;
10092;SDS011;5085;48.092;11.484;2022-10-16T06:32:36;2.33;;;1.02;;
10092;SDS011;5085;48.092;11.484;2022-10-16T06:35:02;4.07;;;1.00;;
10092;SDS011;5085;48.092;11.484;2022-10-16T06:37:28;2.42;;;1.00;;
10092;SDS011;5085;48.092;11.484;2022-10-16T06:39:54;2.67;;;1.20;;
10092;SDS011;5085;48.092;11.484;2022-10-16T06:42:20;3.15;;;0.90;;
10092;SDS011;5085;48.092;11.484;2022-10-16T06:44:46;2.85;;;1.00;;
10092;SDS011;5085;48.092;11.484;2022-10-16T06:47:12;2.08;;;0.93;;
10092;SDS011;5085;48.092;11.484;2022-10-16T06:49:38;1.88;;;0.77;;
10092;SDS011;5085;48.092;11.484;2022-10-16T06:52:04;1.77;;;0.90;;
10092;SDS011;5085;48.092;11.484;2022-10-16T06:54:30;2.50;;;0.90;;
10092;SDS011;5085;48.092;11.484;2022-10-16T06:56:56;4.55;;;1.08;;
10092;SDS011;5085;48.092;11.484;2022-10-16T06:59:22;2.05;;;0.73;;
10092;SDS011;5085;48.092;11.484;2022-10-16T07:01:48;3.53;;;1.08;;
10092;SDS011;5085;48.092;11.484;2022-10-16T07:04:14;1.70;;;0.90;;
10092;SDS011;5085;48.092;11.484;2022-10-16T07:06:40;1.83;;;0.82;;
10092;SDS011;5085;48.092;11.484;2022-10-16T07:09:07;2.90;;;1.10;;
10092;SDS011;5085;48.092;11.484;2022-10-16T07:11:36;4.32;;;1.00;;
10092;SDS011;5085;48.092;11.484;2022-10-16T07:14:03;1.52;;;1.00;;
10092;SDS011;5085;48.092;11.484;2022-10-16T07:16:30;1.67;;;0.70;;
10092;SDS011;5085;48.092;11.484;2022-10-16T07:18:58;1.75;;;0.85;;
10092;SDS011;5085;48.092;11.484;2022-10-16T07:21:28;1.80;;;0.70;;
10092;SDS011;5085;48.092;11.484;2022-10-16T07:23:56;3.75;;;1.00;;
10092;SDS011;5085;48.092;11.484;2022-10-16T07:26:24;1.60;;;0.75;;
10092;SDS011;5085;48.092;11.484;2022-10-16T07:28:51;2.08;;;0.80;;
10092;SDS011;5085;48.092;11.484;2022-10-16T07:31:18;1.60;;;0.73;;
10092;SDS011;5085;48.092;11.484;2022-10-16T07:33:45;1.67;;;0.98;;
10092;SDS011;5085;48.092;11.484;2022-10-16T07:36:14;2.40;;;0.75;;
10092;SDS011;5085;48.092;11.484;2022-10-16T07:38:41;2.78;;;0.93;;
10092;SDS011;5085;48.092;11.484;2022-10-16T07:41:09;2.38;;;1.10;;
10092;SDS011;5085;48.092;11.484;2022-10-16T07:43:37;3.15;;;0.85;;
10092;SDS011;5085;48.092;11.484;2022-10-16T07:46:03;1.98;;;0.90;;
10092;SDS011;5085;48.092;11.484;2022-10-16T07:48:30;1.25;;;0.75;;
10092;SDS011;5085;48.092;11.484;2022-10-16T07:51:01;1.40;;;0.80;;
10092;SDS011;5085;48.092;11.484;2022-10-16T07:53:28;2.22;;;0.88;;
10092;SDS011;5085;48.092;11.484;2022-10-16T07:55:58;1.33;;;0.70;;
10092;SDS011;5085;48.092;11.484;2022-10-16T07:58:25;1.50;;;0.80;;
10092;SDS011;5085;48.092;11.484;2022-10-16T08:00:52;3.53;;;0.98;;
10092;SDS011;5085;48.092;11.484;2022-10-16T08:03:18;3.80;;;1.00;;
10092;SDS011;5085;48.092;11.484;2022-10-16T08:05:44;1.52;;;0.90;;
10092;SDS011;5085;48.092;11.484;2022-10-16T08:08:13;1.23;;;0.75;;
10092;SDS011;5085;48.092;11.484;2022-10-16T08:10:40;2.08;;;1.05;;
10092;SDS011;5085;48.092;11.484;2022-10-16T08:13:06;2.13;;;1.00;;
10092;SDS011;5085;48.092;11.484;2022-10-16T08:15:32;1.80;;;0.90;;
10092;SDS011;5085;48.092;11.484;2022-10-16T08:18:00;2.28;;;0.82;;
10092;SDS011;5085;48.092;11.484;2022-10-16T08:20:28;1.80;;;0.93;;
10092;SDS011;5085;48.092;11.484;2022-10-16T08:22:55;2.60;;;1.00;;
10092;SDS011;5085;48.092;11.484;2022-10-16T08:25:22;2.17;;;0.98;;
10092;SDS011;5085;48.092;11.484;2022-10-16T08:27:49;2.03;;;1.02;;
10092;SDS011;5085;48.092;11.484;2022-10-16T08:30:15;1.80;;;1.10;;
10092;SDS011;5085;48.092;11.484;2022-10-16T08:32:43;4.28;;;1.15;;
10092;SDS011;5085;48.092;11.484;2022-10-16T08:35:10;1.42;;;0.80;;
10092;SDS011;5085;48.092;11.484;2022-10-16T08:37:37;1.27;;;0.80;;
10092;SDS011;5085;48.092;11.484;2022-10-16T08:40:05;1.45;;;0.93;;
10092;SDS011;5085;48.092;11.484;2022-10-16T08:50:28;1.77;;;1.00;;
10092;SDS011;5085;48.092;11.484;2022-10-16T08:52:57;1.98;;;0.90;;
10092;SDS011;5085;48.092;11.484;2022-10-16T08:55:37;1.23;;;0.80;;
10092;SDS011;5085;48.092;11.484;2022-10-16T08:58:15;1.85;;;0.90;;
10092;SDS011;5085;48.092;11.484;2022-10-16T09:00:44;1.52;;;0.88;;
10092;SDS011;5085;48.092;11.484;2022-10-16T09:17:18;1.25;;;0.70;;
10092;SDS011;5085;48.092;11.484;2022-10-16T09:19:51;1.60;;;0.95;;
10092;SDS011;5085;48.092;11.484;2022-10-16T09:22:25;3.42;;;1.10;;
10092;SDS011;5085;48.092;11.484;2022-10-16T09:24:55;3.30;;;0.90;;
10092;SDS011;5085;48.092;11.484;2022-10-16T09:27:26;1.92;;;1.10;;
10092;SDS011;5085;48.092;11.484;2022-10-16T09:29:53;2.97;;;0.90;;
10092;SDS011;5085;48.092;11.484;2022-10-16T09:32:19;3.00;;;0.80;;
10092;SDS011;5085;48.092;11.484;2022-10-16T09:34:50;1.30;;;0.70;;
10092;SDS011;5085;48.092;11.484;2022-10-16T09:37:20;2.08;;;1.00;;
10092;SDS011;5085;48.092;11.484;2022-10-16T09:39:49;2.08;;;1.00;;
10092;SDS011;5085;48.092;11.484;2022-10-16T09:42:38;2.47;;;0.80;;
10092;SDS011;5085;48.092;11.484;2022-10-16T09:45:03;1.73;;;0.90;;
10092;SDS011;5085;48.092;11.484;2022-10-16T09:47:30;1.70;;;1.00;;
10092;SDS011;5085;48.092;11.484;2022-10-16T09:50:04;1.60;;;0.80;;
10092;SDS011;5085;48.092;11.484;2022-10-16T09:52:47;1.60;;;0.88;;
10092;SDS011;5085;48.092;11.484;2022-10-16T09:55:14;2.17;;;0.90;;
10092;SDS011;5085;48.092;11.484;2022-10-16T09:57:49;1.30;;;0.82;;
10092;SDS011;5085;48.092;11.484;2022-10-16T10:00:16;1.67;;;0.90;;
10092;SDS011;5085;48.092;11.484;2022-10-16T10:02:44;1.48;;;0.85;;
10092;SDS011;5085;48.092;11.484;2022-10-16T10:05:17;1.75;;;0.90;;
10092;SDS011;5085;48.092;11.484;2022-10-16T10:08:03;1.25;;;0.57;;
10092;SDS011;5085;48.092;11.484;2022-10-16T10:10:39;1.50;;;0.80;;
10092;SDS011;5085;48.092;11.484;2022-10-16T10:13:18;1.50;;;0.77;;
10092;SDS011;5085;48.092;11.484;2022-10-16T10:15:46;2.08;;;0.73;;
10092;SDS011;5085;48.092;11.484;2022-10-16T10:18:19;2.00;;;1.08;;
10092;SDS011;5085;48.092;11.484;2022-10-16T10:21:01;1.00;;;0.73;;
10092;SDS011;5085;48.092;11.484;2022-10-16T10:23:30;1.45;;;0.70;;
10092;SDS011;5085;48.092;11.484;2022-10-16T10:26:03;2.30;;;0.90;;
10092;SDS011;5085;48.092;11.484;2022-10-16T10:28:37;1.60;;;0.70;;
10092;SDS011;5085;48.092;11.484;2022-10-16T10:32:09;1.17;;;0.70;;
10092;SDS011;5085;48.092;11.484;2022-10-16T10:34:35;2.22;;;0.82;;
10092;SDS011;5085;48.092;11.484;2022-10-16T10:40:30;1.88;;;0.75;;
10092;SDS011;5085;48.092;11.484;2022-10-16T10:42:57;1.67;;;1.30;;
10092;SDS011;5085;48.092;11.484;2022-10-16T10:48:17;1.98;;;0.80;;
10092;SDS011;5085;48.092;11.484;2022-10-16T10:51:48;2.20;;;0.85;;
10092;SDS011;5085;48.092;11.484;2022-10-16T10:59:07;2.08;;;0.80;;
10092;SDS011;5085;48.092;11.484;2022-10-16T11:02:00;0.93;;;0.60;;
10092;SDS011;5085;48.092;11.484;2022-10-16T11:04:52;1.35;;;0.65;;
10092;SDS011;5085;48.092;11.484;2022-10-16T11:07:37;1.52;;;0.70;;
10092;SDS011;5085;48.092;11.484;2022-10-16T11:10:21;1.08;;;0.50;;
10092;SDS011;5085;48.092;11.484;2022-10-16T11:12:57;1.15;;;0.50;;
10092;SDS011;5085;48.092;11.484;2022-10-16T11:15:34;3.15;;;0.90;;
10092;SDS011;5085;48.092;11.484;2022-10-16T11:18:05;1.42;;;0.70;;
10092;SDS011;5085;48.092;11.484;2022-10-16T11:20:34;1.88;;;0.80;;
10092;SDS011;5085;48.092;11.484;2022-10-16T11:25:40;0.60;;;0.43;;
10092;SDS011;5085;48.092;11.484;2022-10-16T11:28:19;2.90;;;0.60;;
10092;SDS011;5085;48.092;11.484;2022-10-16T11:34:25;0.90;;;0.57;;
10092;SDS011;5085;48.092;11.484;2022-10-16T11:36:42;1.25;;;0.45;;
10092;SDS011;5085;48.092;11.484;2022-10-16T11:39:20;0.80;;;0.52;;
10092;SDS011;5085;48.092;11.484;2022-10-16T11:41:53;0.90;;;0.40;;
10092;SDS011;5085;48.092;11.484;2022-10-16T11:49:45;1.83;;;0.45;;
10092;SDS011;5085;48.092;11.484;2022-10-16T11:52:17;0.93;;;0.50;;
10092;SDS011;5085;48.092;11.484;2022-10-16T11:57:21;0.93;;;0.40;;
10092;SDS011;5085;48.092;11.484;2022-10-16T11:59:54;0.50;;;0.30;;
10092;SDS011;5085;48.092;11.484;2022-10-16T12:05:52;0.47;;;0.30;;
10092;SDS011;5085;48.092;11.484;2022-10-16T12:10:41;2.13;;;0.30;;
10092;SDS011;5085;48.092;11.484;2022-10-16T12:18:37;0.70;;;0.40;;
10092;SDS011;5085;48.092;11.484;2022-10-16T12:21:05;1.52;;;0.52;;
10092;SDS011;5085;48.092;11.484;2022-10-16T12:23:46;1.48;;;0.50;;
10092;SDS011;5085;48.092;11.484;2022-10-16T12:26:26;0.47;;;0.30;;
10092;SDS011;5085;48.092;11.484;2022-10-16T12:28:54;1.83;;;0.60;;
10092;SDS011;5085;48.092;11.484;2022-10-16T12:31:21;1.58;;;0.40;;
10092;SDS011;5085;48.092;11.484;2022-10-16T12:34:14;0.60;;;0.40;;
10092;SDS011;5085;48.092;11.484;2022-10-16T12:36:55;0.57;;;0.45;;
10092;SDS011;5085;48.092;11.484;2022-10-16T12:39:33;0.45;;;0.35;;
10092;SDS011;5085;48.092;11.484;2022-10-16T12:42:19;0.70;;;0.40;;
10092;SDS011;5085;48.092;11.484;2022-10-16T12:44:46;1.25;;;0.50;;
10092;SDS011;5085;48.092;11.484;2022-10-16T12:49:56;1.65;;;0.45;;
10092;SDS011;5085;48.092;11.484;2022-10-16T12:54:56;3.42;;;0.52;;
10092;SDS011;5085;48.092;11.484;2022-10-16T12:57:35;2.05;;;0.50;;
10092;SDS011;5085;48.092;11.484;2022-10-16T13:01:17;1.48;;;0.52;;
10092;SDS011;5085;48.092;11.484;2022-10-16T13:06:24;0.70;;;0.43;;
10092;SDS011;5085;48.092;11.484;2022-10-16T13:09:24;0.80;;;0.40;;
10092;SDS011;5085;48.092;11.484;2022-10-16T13:15:00;3.67;;;0.52;;
10092;SDS011;5085;48.092;11.484;2022-10-16T13:20:53;0.50;;;0.40;;
10092;SDS011;5085;48.092;11.484;2022-10-16T13:23:32;3.00;;;0.30;;
10092;SDS011;5085;48.092;11.484;2022-10-16T13:29:04;0.90;;;0.40;;
10092;SDS011;5085;48.092;11.484;2022-10-16T13:31:30;2.13;;;0.30;;
10092;SDS011;5085;48.092;11.484;2022-10-16T13:33:58;2.00;;;0.40;;
10092;SDS011;5085;48.092;11.484;2022-10-16T13:41:43;1.17;;;0.50;;
10092;SDS011;5085;48.092;11.484;2022-10-16T13:44:19;2.97;;;0.40;;
10092;SDS011;5085;48.092;11.484;2022-10-16T13:46:46;0.70;;;0.35;;
10092;SDS011;5085;48.092;11.484;2022-10-16T13:51:40;1.15;;;0.43;;
10092;SDS011;5085;48.092;11.484;2022-10-16T13:54:08;3.70;;;0.40;;
10092;SDS011;5085;48.092;11.484;2022-10-16T13:56:38;2.33;;;0.40;;
10092;SDS011;5085;48.092;11.484;2022-10-16T13:59:05;3.00;;;0.43;;
10092;SDS011;5085;48.092;11.484;2022-10-16T14:01:47;0.98;;;0.20;;
10092;SDS011;5085;48.092;11.484;2022-10-16T14:04:14;1.33;;;0.43;;
10092;SDS011;5085;48.092;11.484;2022-10-16T14:06:42;0.70;;;0.32;;
10092;SDS011;5085;48.092;11.484;2022-10-16T14:09:15;2.90;;;0.50;;
10092;SDS011;5085;48.092;11.484;2022-10-16T14:11:55;0.47;;;0.30;;
10092;SDS011;5085;48.092;11.484;2022-10-16T14:14:25;0.98;;;0.40;;
10092;SDS011;5085;48.092;11.484;2022-10-16T14:16:56;1.42;;;0.28;;
10092;SDS011;5085;48.092;11.484;2022-10-16T14:19:23;0.90;;;0.40;;
10092;SDS011;5085;48.092;11.484;2022-10-16T14:21:52;3.28;;;0.40;;
10092;SDS011;5085;48.092;11.484;2022-10-16T14:24:26;0.88;;;0.40;;
10092;SDS011;5085;48.092;11.484;2022-10-16T14:26:55;1.25;;;0.43;;
10092;SDS011;5085;48.092;11.484;2022-10-16T14:29:22;2.25;;;0.40;;
10092;SDS011;5085;48.092;11.484;2022-10-16T14:31:54;3.70;;;0.50;;
10092;SDS011;5085;48.092;11.484;2022-10-16T14:36:56;2.22;;;0.38;;
10092;SDS011;5085;48.092;11.484;2022-10-16T14:39:24;0.52;;;0.30;;
10092;SDS011;5085;48.092;11.484;2022-10-16T14:41:52;1.15;;;0.32;;
10092;SDS011;5085;48.092;11.484;2022-10-16T14:44:21;2.60;;;0.32;;
10092;SDS011;5085;48.092;11.484;2022-10-16T14:46:54;0.30;;;0.20;;
10092;SDS011;5085;48.092;11.484;2022-10-16T14:49:20;2.05;;;0.50;;
10092;SDS011;5085;48.092;11.484;2022-10-16T14:51:49;1.95;;;0.30;;
10092;SDS011;5085;48.092;11.484;2022-10-16T14:54:16;1.17;;;0.40;;
10092;SDS011;5085;48.092;11.484;2022-10-16T14:56:48;0.82;;;0.40;;
10092;SDS011;5085;48.092;11.484;2022-10-16T14:59:25;1.83;;;0.32;;
10092;SDS011;5085;48.092;11.484;2022-10-16T15:01:55;2.72;;;0.20;;
10092;SDS011;5085;48.092;11.484;2022-10-16T15:04:22;0.85;;;0.40;;
10092;SDS011;5085;48.092;11.484;2022-10-16T15:06:48;1.20;;;0.43;;
10092;SDS011;5085;48.092;11.484;2022-10-16T15:09:14;3.28;;;0.47;;
10092;SDS011;5085;48.092;11.484;2022-10-16T15:11:40;1.05;;;0.43;;
10092;SDS011;5085;48.092;11.484;2022-10-16T15:14:11;4.13;;;0.52;;
10092;SDS011;5085;48.092;11.484;2022-10-16T15:16:38;0.77;;;0.40;;
10092;SDS011;5085;48.092;11.484;2022-10-16T15:19:04;0.80;;;0.40;;
10092;SDS011;5085;48.092;11.484;2022-10-16T15:21:31;2.42;;;0.40;;
10092;SDS011;5085;48.092;11.484;2022-10-16T15:23:58;0.98;;;0.38;;
10092;SDS011;5085;48.092;11.484;2022-10-16T15:26:26;3.75;;;0.40;;
10092;SDS011;5085;48.092;11.484;2022-10-16T15:28:53;0.85;;;0.30;;
10092;SDS011;5085;48.092;11.484;2022-10-16T15:31:19;2.33;;;0.47;;
10092;SDS011;5085;48.092;11.484;2022-10-16T15:33:49;1.05;;;0.40;;
10092;SDS011;5085;48.092;11.484;2022-10-16T15:36:28;1.17;;;0.50;;
10092;SDS011;5085;48.092;11.484;2022-10-16T15:38:55;3.50;;;0.47;;
10092;SDS011;5085;48.092;11.484;2022-10-16T15:41:21;3.78;;;0.50;;
10092;SDS011;5085;48.092;11.484;2022-10-16T15:43:48;2.17;;;0.73;;
10092;SDS011;5085;48.092;11.484;2022-10-16T15:46:17;2.40;;;0.52;;
10092;SDS011;5085;48.092;11.484;2022-10-16T15:48:50;1.13;;;0.68;;
10092;SDS011;5085;48.092;11.484;2022-10-16T15:51:21;1.75;;;0.63;;
10092;SDS011;5085;48.092;11.484;2022-10-16T15:53:47;2.10;;;0.80;;
10092;SDS011;5085;48.092;11.484;2022-10-16T15:56:14;1.40;;;0.60;;
10092;SDS011;5085;48.092;11.484;2022-10-16T15:58:41;1.95;;;0.60;;
10092;SDS011;5085;48.092;11.484;2022-10-16T16:01:08;1.00;;;0.60;;
10092;SDS011;5085;48.092;11.484;2022-10-16T16:03:36;1.27;;;0.60;;
10092;SDS011;5085;48.092;11.484;2022-10-16T16:06:06;2.95;;;0.70;;
10092;SDS011;5085;48.092;11.484;2022-10-16T16:08:33;3.47;;;0.60;;
10092;SDS011;5085;48.092;11.484;2022-10-16T16:11:09;1.60;;;0.70;;
10092;SDS011;5085;48.092;11.484;2022-10-16T16:13:37;1.95;;;0.88;;
10092;SDS011;5085;48.092;11.484;2022-10-16T16:16:07;3.50;;;0.93;;
10092;SDS011;5085;48.092;11.484;2022-10-16T16:18:35;1.02;;;0.55;;
10092;SDS011;5085;48.092;11.484;2022-10-16T16:21:01;1.42;;;0.60;;
10092;SDS011;5085;48.092;11.484;2022-10-16T16:23:28;2.08;;;0.80;;
10092;SDS011;5085;48.092;11.484;2022-10-16T16:28:51;1.58;;;0.40;;
10092;SDS011;5085;48.092;11.484;2022-10-16T16:31:18;1.23;;;0.50;;
10092;SDS011;5085;48.092;11.484;2022-10-16T16:33:45;2.50;;;0.95;;
10092;SDS011;5085;48.092;11.484;2022-10-16T16:36:11;4.05;;;1.10;;
10092;SDS011;5085;48.092;11.484;2022-10-16T16:38:37;2.60;;;0.70;;
10092;SDS011;5085;48.092;11.484;2022-10-16T16:41:10;2.50;;;0.75;;
10092;SDS011;5085;48.092;11.484;2022-10-16T16:43:46;2.42;;;1.02;;
10092;SDS011;5085;48.092;11.484;2022-10-16T16:46:17;4.70;;;0.90;;
10092;SDS011;5085;48.092;11.484;2022-10-16T16:48:44;4.88;;;1.10;;